Air Navigation Services of Czech Republic
Airport: LKMT Updated:  01.04.2020 01:01:27  UTC
 METAR LKMT 01.04. 01:00 ...
METAR LKMT 010100Z VRB02KT 9999 FEW035 M04/M06 Q1025 NOSIG RMK REG QNH 1020=
 TAF LKMT 31.03. 23:00 ...
TAF LKMT 312300Z 0100/0206 04003KT CAVOK      BECMG 0107/0109 23005KT      TEMPO 0102/0106 3000 BR NSC      BECMG 0110/0112 23010KT=